createdAt,value
2023-04-25T00:00:22.061Z,99636.61
2023-04-25T00:02:49.335Z,99633.77
2023-04-25T00:05:16.969Z,99632.57
2023-04-25T00:07:44.646Z,99627.75
2023-04-25T00:10:12.705Z,99623.11
2023-04-25T00:12:41.056Z,99622.98
2023-04-25T00:15:08.521Z,99623.23
2023-04-25T00:17:36.367Z,99623.64
2023-04-25T00:20:05.839Z,99623.85
2023-04-25T00:22:35.118Z,99621.31
2023-04-25T00:25:04.107Z,99621.30
2023-04-25T00:27:31.711Z,99617.92
2023-04-25T00:29:59.134Z,99612.40
2023-04-25T00:32:26.396Z,99614.14
2023-04-25T00:34:56.404Z,99612.39
2023-04-25T00:37:23.801Z,99606.12
2023-04-25T00:39:51.317Z,99604.06
2023-04-25T00:42:18.521Z,99602.36
2023-04-25T00:44:45.981Z,99597.21
2023-04-25T00:47:13.310Z,99599.71
2023-04-25T00:49:40.899Z,99600.73
2023-04-25T00:52:08.183Z,99600.80
2023-04-25T00:54:35.544Z,99601.30
2023-04-25T00:57:03.653Z,99603.79
2023-04-25T00:59:31.489Z,99603.02
2023-04-25T01:01:58.880Z,99605.93
2023-04-25T01:04:27.701Z,99610.60
2023-04-25T01:06:55.184Z,99609.13
2023-04-25T01:09:22.903Z,99606.84
2023-04-25T01:11:50.714Z,99608.39
2023-04-25T01:14:18.436Z,99601.14
2023-04-25T01:16:45.988Z,99596.21
2023-04-25T01:19:13.501Z,99596.33
2023-04-25T01:21:41.199Z,99599.20
2023-04-25T01:24:08.762Z,99597.16
2023-04-25T01:26:36.226Z,99595.65
2023-04-25T01:29:08.195Z,99595.45
2023-04-25T01:31:36.255Z,99598.34
2023-04-25T01:34:03.485Z,99595.30
2023-04-25T01:36:32.166Z,99589.02
2023-04-25T01:38:59.462Z,99584.66
2023-04-25T01:41:26.764Z,99587.75
2023-04-25T01:43:54.494Z,99583.52
2023-04-25T01:46:21.857Z,99582.13
2023-04-25T01:48:49.689Z,99586.31
2023-04-25T01:51:17.541Z,99585.14
2023-04-25T01:53:44.870Z,99582.23
2023-04-25T01:56:12.463Z,99580.95
2023-04-25T01:58:40.416Z,99576.14
2023-04-25T02:01:26.609Z,99577.08
2023-04-25T02:04:04.400Z,99580.12
2023-04-25T02:06:36.847Z,99574.95
2023-04-25T02:09:04.439Z,99573.48
2023-04-25T02:11:32.931Z,99574.88
2023-04-25T02:14:35.484Z,99566.89
2023-04-25T02:17:22.999Z,99567.54
2023-04-25T02:19:51.664Z,99565.57
2023-04-25T02:22:18.943Z,99563.36
2023-04-25T02:24:47.263Z,99559.85
2023-04-25T02:27:15.357Z,99557.67
2023-04-25T02:29:42.737Z,99558.00
2023-04-25T02:32:11.467Z,99557.46
2023-04-25T02:34:39.201Z,99560.89
2023-04-25T02:37:06.813Z,99561.08
2023-04-25T02:39:34.218Z,99565.16
2023-04-25T02:42:01.749Z,99559.88
2023-04-25T02:44:30.608Z,99562.23
2023-04-25T02:46:57.965Z,99553.19
2023-04-25T02:49:25.223Z,99550.96
2023-04-25T02:51:53.364Z,99553.58
2023-04-25T02:54:20.830Z,99553.61
2023-04-25T02:56:48.442Z,99552.42
2023-04-25T02:59:20.373Z,99553.40
2023-04-25T03:01:47.723Z,99553.88
2023-04-25T03:04:15.005Z,99552.23
2023-04-25T03:06:42.330Z,99555.09
2023-04-25T03:09:09.628Z,99559.23
2023-04-25T03:11:38.121Z,99562.30
2023-04-25T03:14:05.678Z,99560.37
2023-04-25T03:16:33.265Z,99556.76
2023-04-25T03:19:00.846Z,99555.88
2023-04-25T03:21:28.120Z,99555.58
2023-04-25T03:23:55.680Z,99554.96
2023-04-25T03:26:23.074Z,99553.70
2023-04-25T03:28:50.698Z,99551.09
2023-04-25T03:31:18.545Z,99551.48
2023-04-25T03:33:46.041Z,99551.13
2023-04-25T03:36:13.201Z,99551.25
2023-04-25T03:38:42.103Z,99551.52
2023-04-25T03:41:09.955Z,99557.23
2023-04-25T03:43:50.329Z,99553.89
2023-04-25T03:46:18.122Z,99552.27
2023-04-25T03:48:46.418Z,99555.72
2023-04-25T03:51:18.395Z,99551.57
2023-04-25T03:53:45.764Z,99547.13
2023-04-25T03:56:16.406Z,99546.73
2023-04-25T03:58:45.319Z,99543.66
2023-04-25T04:01:12.854Z,99547.07
2023-04-25T04:03:40.522Z,99542.55
2023-04-25T04:06:09.542Z,99538.44
2023-04-25T04:08:40.297Z,99535.61
2023-04-25T04:11:07.565Z,99534.73
2023-04-25T04:13:34.908Z,99538.65
2023-04-25T04:16:04.973Z,99539.53
2023-04-25T04:18:33.891Z,99538.02
2023-04-25T04:21:01.094Z,99534.34
2023-04-25T04:23:31.091Z,99533.02
2023-04-25T04:25:59.528Z,99533.97
2023-04-25T04:28:47.436Z,99530.02
2023-04-25T04:31:33.535Z,99529.30
2023-04-25T04:34:02.457Z,99528.23
2023-04-25T04:36:31.125Z,99520.73
2023-04-25T04:38:58.983Z,99518.98
2023-04-25T04:41:38.570Z,99518.61
2023-04-25T04:44:13.056Z,99516.83
2023-04-25T04:46:50.212Z,99518.48
2023-04-25T04:49:46.831Z,99515.78
2023-04-25T04:52:33.146Z,99514.81
2023-04-25T04:55:21.224Z,99512.74
2023-04-25T04:58:08.873Z,99513.90
2023-04-25T05:00:56.829Z,99513.11
2023-04-25T05:03:53.676Z,99515.27
2023-04-25T05:06:41.159Z,99520.77
2023-04-25T05:09:28.910Z,99522.61
2023-04-25T05:12:28.413Z,99527.56
2023-04-25T05:15:18.213Z,99524.69
2023-04-25T05:18:11.779Z,99523.23
2023-04-25T05:20:58.980Z,99520.89
2023-04-25T05:23:47.648Z,99520.85
2023-04-25T05:26:33.724Z,99520.31
2023-04-25T05:29:19.658Z,99513.04
2023-04-25T05:32:04.277Z,99515.66
2023-04-25T05:34:31.699Z,99514.05
2023-04-25T05:37:06.226Z,99510.52
2023-04-25T05:39:37.123Z,99506.26
2023-04-25T05:42:12.534Z,99502.11
2023-04-25T05:44:58.353Z,99500.60
2023-04-25T05:47:46.102Z,99500.17
2023-04-25T05:50:19.318Z,99497.83
2023-04-25T05:53:00.316Z,99496.52
2023-04-25T05:55:39.587Z,99496.95
2023-04-25T05:58:29.727Z,99496.66
2023-04-25T06:00:57.592Z,99493.75
2023-04-25T06:03:25.049Z,99493.41
2023-04-25T06:05:52.589Z,99496.19
2023-04-25T06:08:21.222Z,99491.55
2023-04-25T06:10:48.432Z,99492.91
2023-04-25T06:13:16.196Z,99495.45
2023-04-25T06:15:43.870Z,99493.04
2023-04-25T06:18:11.201Z,99490.11
2023-04-25T06:20:38.461Z,99487.46
2023-04-25T06:23:05.755Z,99488.53
2023-04-25T06:25:46.073Z,99485.27
2023-04-25T06:28:13.409Z,99486.39
2023-04-25T06:30:41.234Z,99490.42
2023-04-25T06:33:11.290Z,99490.20
2023-04-25T06:35:39.099Z,99486.00
2023-04-25T06:38:06.911Z,99482.81
2023-04-25T06:40:34.709Z,99481.42
2023-04-25T06:43:02.192Z,99484.22
2023-04-25T06:45:41.329Z,99488.87
2023-04-25T06:48:09.593Z,99486.86
2023-04-25T06:50:37.354Z,99487.60
2023-04-25T06:53:04.600Z,99486.95
2023-04-25T06:55:33.232Z,99483.64
2023-04-25T06:58:08.932Z,99483.57
2023-04-25T07:00:55.060Z,99476.27
2023-04-25T07:03:24.780Z,99476.75
2023-04-25T07:05:55.660Z,99474.59
2023-04-25T07:08:23.490Z,99480.48
2023-04-25T07:10:51.022Z,99478.66
2023-04-25T07:13:18.218Z,99477.98
2023-04-25T07:15:45.467Z,99477.75
2023-04-25T07:18:13.217Z,99474.09
2023-04-25T07:20:40.466Z,99478.60
2023-04-25T07:23:07.673Z,99469.83
2023-04-25T07:25:35.992Z,99470.81
2023-04-25T07:28:03.376Z,99468.21
2023-04-25T07:30:31.326Z,99461.80
2023-04-25T07:32:58.552Z,99463.00
2023-04-25T07:35:26.004Z,99464.33
2023-04-25T07:37:53.143Z,99467.09
2023-04-25T07:40:20.578Z,99468.88
2023-04-25T07:42:51.107Z,99468.66
2023-04-25T07:45:24.248Z,99466.91
2023-04-25T07:47:52.472Z,99463.37
2023-04-25T07:50:20.523Z,99463.18
2023-04-25T07:52:48.218Z,99461.98
2023-04-25T07:55:30.982Z,99460.21
2023-04-25T07:58:03.292Z,99460.18
2023-04-25T08:00:31.984Z,99456.41
2023-04-25T08:03:16.390Z,99451.36
2023-04-25T08:05:44.626Z,99448.54
2023-04-25T08:08:13.044Z,99453.09
2023-04-25T08:10:41.442Z,99451.88
2023-04-25T08:13:09.801Z,99445.73
2023-04-25T08:15:37.118Z,99450.23
2023-04-25T08:18:04.933Z,99451.77
2023-04-25T08:20:32.710Z,99446.45
2023-04-25T08:23:01.056Z,99448.62
2023-04-25T08:25:41.225Z,99445.27
2023-04-25T08:28:08.971Z,99448.10
2023-04-25T08:30:37.138Z,99443.69
2023-04-25T08:33:04.917Z,99439.61
2023-04-25T08:35:52.537Z,99435.55
2023-04-25T08:38:20.755Z,99433.17
2023-04-25T08:40:49.901Z,99430.55
2023-04-25T08:43:19.715Z,99427.18
2023-04-25T08:45:47.678Z,99420.80
2023-04-25T08:48:33.211Z,99424.46
2023-04-25T08:51:01.745Z,99420.27
2023-04-25T08:53:30.826Z,99419.85
2023-04-25T08:55:59.487Z,99421.11
2023-04-25T08:58:26.865Z,99417.30
2023-04-25T09:00:54.430Z,99414.06
2023-04-25T09:03:23.079Z,99412.40
2023-04-25T09:05:51.802Z,99414.87
2023-04-25T09:08:19.788Z,99410.98
2023-04-25T09:10:47.486Z,99408.51
2023-04-25T09:13:15.781Z,99405.52
2023-04-25T09:16:18.179Z,99404.89
2023-04-25T09:18:59.393Z,99403.83
2023-04-25T09:21:26.742Z,99401.75
2023-04-25T09:23:54.901Z,99398.23
2023-04-25T09:26:22.534Z,99396.88
2023-04-25T09:28:51.005Z,99399.30
2023-04-25T09:31:24.885Z,99392.97
2023-04-25T09:34:03.024Z,99390.39
2023-04-25T09:36:37.868Z,99390.98
2023-04-25T09:39:21.688Z,99391.27
2023-04-25T09:41:55.854Z,99391.20
2023-04-25T09:44:27.873Z,99387.05
2023-04-25T09:46:55.861Z,99384.68
2023-04-25T09:49:26.426Z,99388.05
2023-04-25T09:52:14.933Z,99383.48
2023-04-25T09:55:06.625Z,99375.95
2023-04-25T09:57:34.576Z,99376.46
2023-04-25T10:00:05.747Z,99370.02
2023-04-25T10:02:43.604Z,99365.48
2023-04-25T10:05:12.334Z,99359.73
2023-04-25T10:07:41.522Z,99363.30
2023-04-25T10:10:19.178Z,99358.83
2023-04-25T10:12:46.543Z,99358.48
2023-04-25T10:15:13.710Z,99355.30
2023-04-25T10:17:41.517Z,99348.81
2023-04-25T10:20:12.017Z,99346.98
2023-04-25T10:22:40.889Z,99349.61
2023-04-25T10:25:09.048Z,99343.86
2023-04-25T10:27:36.820Z,99339.95
2023-04-25T10:30:17.302Z,99338.02
2023-04-25T10:32:45.987Z,99339.08
2023-04-25T10:35:13.906Z,99335.70
2023-04-25T10:38:00.591Z,99339.57
2023-04-25T10:40:27.827Z,99339.64
2023-04-25T10:42:55.963Z,99335.21
2023-04-25T10:45:23.158Z,99334.85
2023-04-25T10:47:50.617Z,99335.67
2023-04-25T10:50:17.894Z,99334.55
2023-04-25T10:52:45.380Z,99328.44
2023-04-25T10:55:12.539Z,99324.73
2023-04-25T10:57:44.822Z,99323.73
2023-04-25T11:00:13.684Z,99322.27
2023-04-25T11:02:43.868Z,99318.80
2023-04-25T11:05:11.428Z,99318.19
2023-04-25T11:07:39.680Z,99313.94
2023-04-25T11:10:07.658Z,99308.52
2023-04-25T11:12:35.247Z,99306.67
2023-04-25T11:15:06.472Z,99308.38
2023-04-25T11:17:34.353Z,99311.64
2023-04-25T11:20:03.295Z,99310.14
2023-04-25T11:22:30.728Z,99309.86
2023-04-25T11:24:57.987Z,99304.58
2023-04-25T11:27:25.443Z,99301.90
2023-04-25T11:29:52.700Z,99296.05
2023-04-25T11:32:20.929Z,99294.66
2023-04-25T11:34:48.877Z,99286.28
2023-04-25T11:37:16.173Z,99287.94
2023-04-25T11:39:45.099Z,99280.80
2023-04-25T11:42:13.655Z,99276.33
2023-04-25T11:44:41.497Z,99273.68
2023-04-25T11:47:08.785Z,99274.26
2023-04-25T11:49:36.392Z,99268.78
2023-04-25T11:52:03.894Z,99269.71
2023-04-25T11:54:31.960Z,99267.85
2023-04-25T11:56:59.207Z,99263.70
2023-04-25T11:59:27.369Z,99266.34
2023-04-25T12:01:55.155Z,99261.68
2023-04-25T12:04:23.858Z,99264.77
2023-04-25T12:06:52.793Z,99267.27
2023-04-25T12:09:30.837Z,99257.10
2023-04-25T12:11:59.624Z,99255.41
2023-04-25T12:14:28.283Z,99257.42
2023-04-25T12:16:58.035Z,99256.62
2023-04-25T12:19:25.421Z,99250.73
2023-04-25T12:24:26.146Z,99244.29
2023-04-25T12:27:03.370Z,99240.92
2023-04-25T12:29:48.851Z,99238.20
2023-04-25T12:32:17.677Z,99237.40
2023-04-25T12:34:45.861Z,99232.45
2023-04-25T12:37:13.624Z,99226.37
2023-04-25T12:39:40.881Z,99227.02
2023-04-25T12:42:14.007Z,99220.60
2023-04-25T12:44:41.763Z,99222.69
2023-04-25T12:47:09.173Z,99217.41
2023-04-25T12:49:36.490Z,99210.83
2023-04-25T12:52:03.700Z,99210.05
2023-04-25T12:54:31.934Z,99204.89
2023-04-25T12:56:59.825Z,99199.67
2023-04-25T12:59:27.414Z,99199.11
2023-04-25T13:01:54.632Z,99199.52
2023-04-25T13:04:22.428Z,99196.07
2023-04-25T13:06:49.737Z,99194.25
2023-04-25T13:09:16.946Z,99191.23
2023-04-25T13:11:44.354Z,99189.88
2023-04-25T13:14:11.446Z,99186.39
2023-04-25T13:16:38.650Z,99182.85
2023-04-25T13:19:08.515Z,99177.41
2023-04-25T13:21:37.356Z,99177.52
2023-04-25T13:24:04.699Z,99177.64
2023-04-25T13:26:32.432Z,99174.89
2023-04-25T13:29:01.246Z,99169.81
2023-04-25T13:31:28.991Z,99165.15
2023-04-25T13:33:56.166Z,99165.17
2023-04-25T13:36:23.509Z,99163.64
2023-04-25T13:38:51.194Z,99159.70
2023-04-25T13:41:19.484Z,99157.06
2023-04-25T13:43:48.092Z,99156.64
2023-04-25T13:46:29.917Z,99157.29
2023-04-25T13:49:12.868Z,99154.19
2023-04-25T13:51:41.144Z,99151.64
2023-04-25T13:54:08.318Z,99149.11
2023-04-25T13:56:35.596Z,99145.75
2023-04-25T13:59:03.563Z,99144.55
2023-04-25T14:01:34.797Z,99145.67
2023-04-25T14:04:02.515Z,99143.70
2023-04-25T14:06:32.010Z,99141.41
2023-04-25T14:09:01.216Z,99144.52
2023-04-25T14:11:28.818Z,99138.88
2023-04-25T14:13:56.263Z,99140.48
2023-04-25T14:16:24.036Z,99138.05
2023-04-25T14:18:51.488Z,99138.48
2023-04-25T14:21:18.775Z,99133.59
2023-04-25T14:23:47.811Z,99135.94
2023-04-25T14:26:15.206Z,99136.30
2023-04-25T14:28:42.562Z,99133.59
2023-04-25T14:31:10.166Z,99130.66
2023-04-25T14:33:40.329Z,99126.41
2023-04-25T14:36:07.730Z,99120.02
2023-04-25T14:38:35.382Z,99119.48
2023-04-25T14:41:02.575Z,99118.56
2023-04-25T14:43:29.957Z,99116.14
2023-04-25T14:45:58.587Z,99112.20
2023-04-25T14:48:26.554Z,99110.09
2023-04-25T14:50:54.167Z,99109.04
2023-04-25T14:53:21.336Z,99103.08
2023-04-25T14:55:49.551Z,99103.80
2023-04-25T14:58:16.763Z,99093.37
2023-04-25T15:00:44.889Z,99096.89
2023-04-25T15:03:16.996Z,99096.58
2023-04-25T15:05:44.783Z,99091.63
2023-04-25T15:08:11.915Z,99089.09
2023-04-25T15:10:39.678Z,99092.44
2023-04-25T15:13:06.980Z,99088.01
2023-04-25T15:15:34.178Z,99084.08
2023-04-25T15:18:01.785Z,99083.55
2023-04-25T15:20:29.122Z,99077.99
2023-04-25T15:22:56.835Z,99079.45
2023-04-25T15:25:24.302Z,99076.25
2023-04-25T15:27:54.469Z,99074.62
2023-04-25T15:30:21.722Z,99074.54
2023-04-25T15:32:49.356Z,99072.36
2023-04-25T15:35:16.851Z,99067.68
2023-04-25T15:37:44.161Z,99067.75
2023-04-25T15:40:14.157Z,99072.14
2023-04-25T15:42:43.170Z,99065.80
2023-04-25T15:45:10.925Z,99068.23
2023-04-25T15:47:38.400Z,99065.58
2023-04-25T15:50:07.267Z,99068.98
2023-04-25T15:52:35.240Z,99067.76
2023-04-25T15:55:04.265Z,99065.59
2023-04-25T15:57:35.486Z,99063.53
2023-04-25T16:00:16.796Z,99064.05
2023-04-25T16:02:45.437Z,99059.77
2023-04-25T16:05:14.452Z,99058.58
2023-04-25T16:07:43.180Z,99058.38
2023-04-25T16:10:11.118Z,99055.57
2023-04-25T16:12:39.477Z,99055.52
2023-04-25T16:15:07.384Z,99057.57
2023-04-25T16:17:34.913Z,99055.29
2023-04-25T16:20:06.095Z,99055.69
2023-04-25T16:22:33.407Z,99054.57
2023-04-25T16:25:00.592Z,99054.22
2023-04-25T16:27:28.157Z,99057.27
2023-04-25T16:29:55.661Z,99058.98
2023-04-25T16:32:22.830Z,99057.79
2023-04-25T16:34:50.044Z,99058.42
2023-04-25T16:37:17.195Z,99057.34
2023-04-25T16:39:44.848Z,99059.27
2023-04-25T16:42:12.810Z,99059.06
2023-04-25T16:44:40.170Z,99056.17
2023-04-25T16:47:07.496Z,99057.52
2023-04-25T16:49:34.827Z,99054.63
2023-04-25T16:52:02.315Z,99054.95
2023-04-25T16:54:29.945Z,99058.38
2023-04-25T16:56:57.966Z,99054.79
2023-04-25T16:59:25.354Z,99056.91
2023-04-25T17:01:52.754Z,99055.05
2023-04-25T17:04:20.391Z,99053.98
2023-04-25T17:06:47.860Z,99053.98
2023-04-25T17:09:15.186Z,99056.30
2023-04-25T17:11:42.668Z,99059.97
2023-04-25T17:14:10.535Z,99059.77
2023-04-25T17:16:38.245Z,99057.51
2023-04-25T17:19:06.032Z,99062.56
2023-04-25T17:21:33.494Z,99062.92
2023-04-25T17:24:01.117Z,99064.58
2023-04-25T17:26:28.603Z,99065.68
2023-04-25T17:28:56.587Z,99070.52
2023-04-25T17:31:24.151Z,99075.52
2023-04-25T17:33:51.491Z,99076.28
2023-04-25T17:36:18.835Z,99078.64
2023-04-25T17:38:46.846Z,99080.92
2023-04-25T17:41:14.970Z,99084.60
2023-04-25T17:43:42.441Z,99089.02
2023-04-25T17:46:10.180Z,99089.23
2023-04-25T17:48:37.671Z,99090.33
2023-04-25T17:51:06.428Z,99091.03
2023-04-25T17:53:34.026Z,99093.30
2023-04-25T17:56:01.400Z,99096.52
2023-04-25T17:58:29.002Z,99100.11
2023-04-25T18:00:56.827Z,99095.17
2023-04-25T18:03:24.331Z,99094.50
2023-04-25T18:05:52.227Z,99093.16
2023-04-25T18:08:22.408Z,99096.84
2023-04-25T18:10:50.779Z,99095.73
2023-04-25T18:13:18.729Z,99096.27
2023-04-25T18:15:46.468Z,99096.41
2023-04-25T18:18:20.480Z,99096.98
2023-04-25T18:20:48.033Z,99096.80
2023-04-25T18:23:16.188Z,99101.48
2023-04-25T18:25:43.607Z,99103.08
2023-04-25T18:28:11.010Z,99104.36
2023-04-25T18:30:38.528Z,99103.05
2023-04-25T18:33:05.970Z,99103.86
2023-04-25T18:35:33.490Z,99103.08
2023-04-25T18:38:01.151Z,99107.67
2023-04-25T18:40:28.759Z,99106.12
2023-04-25T18:42:56.418Z,99108.99
2023-04-25T18:45:24.067Z,99106.40
2023-04-25T18:47:51.914Z,99108.98
2023-04-25T18:50:22.398Z,99112.66
2023-04-25T18:52:49.930Z,99110.98
2023-04-25T18:55:17.459Z,99109.55
2023-04-25T18:57:45.390Z,99109.88
2023-04-25T19:00:12.934Z,99107.81
2023-04-25T19:02:41.193Z,99109.95
2023-04-25T19:05:10.102Z,99116.27
2023-04-25T19:07:40.109Z,99113.11
2023-04-25T19:10:08.411Z,99114.94
2023-04-25T19:12:35.971Z,99111.69
2023-04-25T19:15:03.887Z,99112.65
2023-04-25T19:17:31.726Z,99110.85
2023-04-25T19:19:59.086Z,99111.00
2023-04-25T19:22:27.067Z,99109.20
2023-04-25T19:25:03.099Z,99108.88
2023-04-25T19:27:38.707Z,99110.64
2023-04-25T19:30:09.908Z,99112.02
2023-04-25T19:32:38.055Z,99113.34
2023-04-25T19:35:07.979Z,99112.38
2023-04-25T19:37:37.935Z,99111.59
2023-04-25T19:40:07.233Z,99107.73
2023-04-25T19:42:35.631Z,99110.27
2023-04-25T19:45:03.119Z,99110.45
2023-04-25T19:47:30.612Z,99109.19
2023-04-25T19:49:57.837Z,99107.12
2023-04-25T19:52:25.404Z,99106.86
2023-04-25T19:54:53.558Z,99103.36
2023-04-25T19:57:20.790Z,99103.28
2023-04-25T19:59:49.483Z,99107.02
2023-04-25T20:02:17.955Z,99106.29
2023-04-25T20:04:45.832Z,99105.38
2023-04-25T20:07:13.865Z,99101.85
2023-04-25T20:09:41.591Z,99102.41
2023-04-25T20:12:08.869Z,99101.08
2023-04-25T20:14:36.349Z,99101.81
2023-04-25T20:17:04.150Z,99105.54
2023-04-25T20:19:32.439Z,99104.39
2023-04-25T20:22:00.071Z,99104.60
2023-04-25T20:24:27.686Z,99104.55
2023-04-25T20:26:57.781Z,99111.38
2023-04-25T20:29:25.721Z,99112.37
2023-04-25T20:31:54.046Z,99112.66
2023-04-25T20:34:21.645Z,99111.27
2023-04-25T20:36:49.810Z,99114.42
2023-04-25T20:39:17.159Z,99110.85
2023-04-25T20:41:45.179Z,99111.69
2023-04-25T20:44:12.554Z,99113.14
2023-04-25T20:46:40.368Z,99114.46
2023-04-25T20:49:07.673Z,99119.65
2023-04-25T20:51:36.105Z,99116.23
2023-04-25T20:54:03.642Z,99115.69
2023-04-25T20:56:32.495Z,99123.55
2023-04-25T20:58:59.929Z,99123.15
2023-04-25T21:01:27.660Z,99124.98
2023-04-25T21:03:55.166Z,99128.63
2023-04-25T21:06:22.817Z,99126.83
2023-04-25T21:08:50.408Z,99128.77
2023-04-25T21:11:19.174Z,99126.71
2023-04-25T21:13:47.635Z,99132.23
2023-04-25T21:16:14.890Z,99129.50
2023-04-25T21:18:42.111Z,99127.65
2023-04-25T21:21:10.017Z,99128.37
2023-04-25T21:23:37.304Z,99130.39
2023-04-25T21:26:05.766Z,99132.21
2023-04-25T21:28:33.190Z,99128.40
2023-04-25T21:31:00.500Z,99129.63
2023-04-25T21:33:27.758Z,99130.90
2023-04-25T21:35:55.040Z,99132.25
2023-04-25T21:38:22.394Z,99129.50
2023-04-25T21:40:49.908Z,99129.58
2023-04-25T21:43:17.802Z,99132.00
2023-04-25T21:48:19.088Z,99129.67
2023-04-25T21:50:46.605Z,99130.86
2023-04-25T21:53:14.102Z,99130.73
2023-04-25T21:55:41.378Z,99124.67
2023-04-25T21:58:08.707Z,99122.83
2023-04-25T22:00:36.301Z,99122.02
2023-04-25T22:03:03.745Z,99120.33
2023-04-25T22:05:32.176Z,99121.48
2023-04-25T22:08:00.069Z,99119.16
2023-04-25T22:10:27.733Z,99119.40
2023-04-25T22:12:55.679Z,99116.00
2023-04-25T22:15:26.041Z,99113.87
2023-04-25T22:17:56.250Z,99114.58
2023-04-25T22:20:25.831Z,99112.63
2023-04-25T22:22:54.152Z,99111.92
2023-04-25T22:25:21.721Z,99117.16
2023-04-25T22:27:49.126Z,99115.29
2023-04-25T22:30:16.511Z,99119.23
2023-04-25T22:32:44.188Z,99115.10
2023-04-25T22:35:11.876Z,99118.29
2023-04-25T22:37:41.002Z,99117.67
2023-04-25T22:40:11.382Z,99115.58
2023-04-25T22:42:39.781Z,99116.52
2023-04-25T22:45:07.755Z,99118.56
2023-04-25T22:47:36.837Z,99120.42
2023-04-25T22:50:07.304Z,99119.08
2023-04-25T22:52:34.550Z,99117.67
2023-04-25T22:55:04.663Z,99120.48
2023-04-25T22:57:32.705Z,99116.42
2023-04-25T22:59:59.909Z,99115.60
2023-04-25T23:02:27.466Z,99116.05
2023-04-25T23:04:55.224Z,99115.06
2023-04-25T23:07:23.219Z,99114.09
2023-04-25T23:09:50.397Z,99113.48
2023-04-25T23:12:19.008Z,99114.36
2023-04-25T23:14:50.665Z,99113.91
2023-04-25T23:17:18.038Z,99113.29
2023-04-25T23:19:46.126Z,99108.41
2023-04-25T23:22:13.993Z,99107.38
2023-04-25T23:24:41.293Z,99106.34
2023-04-25T23:27:08.620Z,99105.08
2023-04-25T23:29:36.026Z,99102.86
2023-04-25T23:32:03.363Z,99104.84
2023-04-25T23:34:31.206Z,99103.74
2023-04-25T23:37:01.638Z,99101.36
2023-04-25T23:39:29.018Z,99099.84
2023-04-25T23:41:57.428Z,99096.83
2023-04-25T23:44:24.679Z,99096.50
2023-04-25T23:46:52.208Z,99097.20
2023-04-25T23:49:19.521Z,99097.73
2023-04-25T23:51:46.770Z,99098.39
2023-04-25T23:54:14.990Z,99097.35
2023-04-25T23:56:42.410Z,99099.41
2023-04-25T23:59:09.611Z,99098.27
